AirNav   Air Wisconsin Up To $57,000 Bonus
 
 1039 users online  

5IN4 Wyckoff Airstrip
Valparaiso, Indiana, USA

GOING TO VALPARAISO?


FAA INFORMATION EFFECTIVE 26 JANUARY 2023

Location

FAA Identifier: 5IN4
Lat/Long: 41-29-00.1450N 086-57-00.0980W
41-29.002417N 086-57.001633W
41.4833736,-86.9500272
(estimated)
Elevation: 780 ft. / 238 m (estimated)
Variation: 02W (1985)
From city: 5 miles NE of VALPARAISO, IN
Time zone: UTC -6 (UTC -5 during Daylight Saving Time)
Zip code: 46383

Airport Operations

Airport use: Private use. Permission required prior to landing
Activation date: 05/1950
Control tower: no
ARTCC: CHICAGO CENTER
FSS: TERRE HAUTE FLIGHT SERVICE STATION
Attendance: CONTINUOUS
Wind indicator: yes
Segmented circle: no

Airport Communications

WX ASOS at VPZ (3 nm SW): 125.875 (219-531-1770)
WX AWOS-3 at PPO (11 nm NE): 119.825 (219-326-6916)
WX AWOS-3 at MGC (14 nm NE): 128.450 (219-878-1106)
WX AWOS-3 at OXI (16 nm SE): 135.775 (574-772-2041)

Nearby radio navigation aids

VOR radial/distance  VOR name  Freq  Var
OXIr306/16.6KNOX VOR/DME115.6000E
CGTr091/28.0CHICAGO HEIGHTS VORTAC114.2002E
GIJr239/33.1GIPPER VORTAC115.4000E
EONr069/40.0PEOTONE VORTAC113.2002E

 
NDB name  Hdg/Dist  Freq  Var  ID
SEDLY303/3.821202WVP ...- .--.

Airport Services

Airframe service: NONE
Powerplant service: MINOR

Runway Information

Runway N/S

Dimensions: 1800 x 60 ft. / 549 x 18 m
Surface: turf
RUNWAY N  RUNWAY S
Traffic pattern: leftleft
Obstructions: none45 ft. pline, marked, 400 ft. from runway

Airport Ownership and Management from official FAA records

Ownership: Privately-owned
Owner: JAMES L. WYCKOFF
594E 400N
VALPARAISO, IN 46383
Phone 219-462-6716
Manager: KEN WYCKOFF
594E 400N
VALPARAISO, IN 46383
Phone 219-462-6716

Airport Operational Statistics

Aircraft based on the field: 1
Single engine airplanes: 1
    

Additional Remarks

FOR CD CTC CHICAGO ARTCC AT 630-906-8921.

Instrument Procedures

There are no published instrument procedures at 5IN4.

Some nearby airports with instrument procedures:

KVPZ - Porter County Regional Airport (3 nm SW)
KPPO - La Porte Municipal Airport (11 nm NE)
KMGC - Michigan City Municipal Airport-Phillips Field (14 nm NE)
3HO - Hobart Sky Ranch Airport (15 nm W)
KOXI - Starke County Airport (16 nm SE)
 
Loc | Ops | Rwys | IFR | FBO | Links
Com | Nav | Svcs | Stats | Notes
Area around 5IN4 (Wyckoff Airstrip)
 
Road maps at: MapQuest Bing Google
 
Aerial photo
No photo
 
Sectional chart

 
Airport distance calculator
Flying to Wyckoff Airstrip? Find the distance to fly.

From to 5IN4

Sunrise and sunset
Times for 08-Feb-2023
 Local
(UTC-6)
 Zulu
(UTC)
Morning civil twilight06:2412:24
Sunrise06:5312:53
Sunset17:1123:11
Evening civil twilight17:4023:40

Current date and time
Zulu (UTC)  09-Feb-2023 04:12:08
Local (UTC-6)  08-Feb-2023 22:12:08
 
METAR
KVPZ 
3nm SW 
090356Z AUTO 08007KT 9SM BKN036 BKN048 OVC060 03/00 A3001 RMK AO2 SLP170 T00280000
KPPO 
11nm NE 
090355Z AUTO 10005KT 10SM BKN048 BKN110 03/02 A3003 RMK AO2 T00300020
KMGC 
14nm NE 
090355Z AUTO 12004KT 10SM SCT055 OVC075 03/00 A3003 RMK AO2
KOXI 
16nm SE 
090355Z AUTO 12008KT 10SM SCT033 SCT065 OVC100 04/01 A3002 RMK AO1
TAF
KGYY 
22nm W 
082053Z 0821/0918 14006KT P6SM BKN200 FM090300 10008KT 6SM -RA OVC040 FM090500 09011KT 4SM -RA BR SCT009 OVC015 FM090700 07014G23KT 2SM RA BR OVC005 PROB30 0912/0915 -TSRA OVC005CB FM091500 21015G25KT 3SM -RA BR OVC005
NOTAMs
Click for the latest NOTAMs
NOTAMs are issued by the DoD/FAA and will open in a separate window not controlled by AirNav.

 

 
 

Would you like to see your business listed on this page?

 If your business provides an interesting product or service to pilots, flight crews, aircraft, or users of the Wyckoff Airstrip, you should consider listing it here.  To start the listing process, click on the button below
 
Add a business
 

Other Pages about Wyckoff Airstrip

Update a link
 
Copyright © AirNav, LLC. All rights reserved. Privacy Policy  Contact